Airfield :
LOGIN :

Register | Disclaimer

   EN    FR    IT 

 










Legend :    VFR   Marginal VFR   IFR   Intensive IFR   Very Intensive IFR
Visi :
Ceiling :
>= 8 km
>= 3000ft
5 to 8 km
1000 to 3000 ft
1500m to 5 km
500 to 1000 ft
800 to 1500m
200 to 500 ft
< 800m
< 200 ft
Symbols :   Thunderstorms  Fog  Heavy snow  Heavy precipitations  Wind > 20 kt
SIGMETs :     Misc.  Thunderstorms  Icing  Turbulence  Mountain Waves  Volcanic Ashes







- Airport Elevation : 302 ft
- IATA code : MAH


LEMH - Menorca

CURRENT METAR :
  • 171300Z 05010KT 9999 SCT018TCU SCT022 21/17 Q1012

EXPIRED METARs :
  • 171230Z 04011KT 9999 SCT018TCU SCT022 22/17 Q1012
  • 171200Z 08011KT 9999 SCT018TCU SCT020 23/18 Q1012
  • 171130Z 06010KT 9999 FEW018TCU SCT020 23/17 Q1012
  • 171100Z 05010KT 020V080 9999 SCT020 22/17 Q1013
  • 171030Z 04011KT 010V070 9999 SCT020 22/18 Q1013

TAF TAF LEMH
Valid from the 17 at 09:00 until the 18 at 09:00 UTC


170800Z 1709/1809 03009KT 9999 SCT020 TX23/1712Z TN15/1806Z
PROB40
TEMPO 1709/1809 4000 SHRA SCT014TCU BKN020
PROB30
TEMPO 1709/1809 4000 TSRA SCT014CB BKN020
No reported NOTAMs for that airfield.



MET'MAP, your aeronautical weather chart ! - Copyright ORBIFLY December 2007 - Disclaimer

ORBIFLY MET'MAP TEAM :

Programming & Development : Alexandra Zaïnal
Concept & Development : Baudouin d'Aumeries
Co-Development & Prog : Marc-Olivier Méhu
Technical & hardware support : Manuel Goepfert

Contact : metmap@orbifly.com




SOURCES & CREDITS :

   NOAA